sensor_id;sensor_type;location;lat;lon;timestamp;P1;durP1;ratioP1;P2;durP2;ratioP2
22186;SDS011;11259;52.146;12.844;2023-07-09T00:02:14;2.08;;;1.55;;
22186;SDS011;11259;52.146;12.844;2023-07-09T00:04:40;1.52;;;1.42;;
22186;SDS011;11259;52.146;12.844;2023-07-09T00:07:08;2.55;;;2.20;;
22186;SDS011;11259;52.146;12.844;2023-07-09T00:09:38;1.98;;;1.35;;
22186;SDS011;11259;52.146;12.844;2023-07-09T00:12:06;1.98;;;1.65;;
22186;SDS011;11259;52.146;12.844;2023-07-09T00:14:33;1.70;;;1.60;;
22186;SDS011;11259;52.146;12.844;2023-07-09T00:16:58;1.52;;;1.42;;
22186;SDS011;11259;52.146;12.844;2023-07-09T00:19:23;2.03;;;1.80;;
22186;SDS011;11259;52.146;12.844;2023-07-09T00:21:49;3.00;;;2.25;;
22186;SDS011;11259;52.146;12.844;2023-07-09T00:24:15;2.22;;;1.80;;
22186;SDS011;11259;52.146;12.844;2023-07-09T00:26:40;1.63;;;1.50;;
22186;SDS011;11259;52.146;12.844;2023-07-09T00:29:09;1.83;;;1.55;;
22186;SDS011;11259;52.146;12.844;2023-07-09T00:31:34;2.60;;;1.70;;
22186;SDS011;11259;52.146;12.844;2023-07-09T00:33:59;1.50;;;1.30;;
22186;SDS011;11259;52.146;12.844;2023-07-09T00:36:26;1.80;;;1.48;;
22186;SDS011;11259;52.146;12.844;2023-07-09T00:38:52;1.90;;;1.80;;
22186;SDS011;11259;52.146;12.844;2023-07-09T00:41:18;2.05;;;1.75;;
22186;SDS011;11259;52.146;12.844;2023-07-09T00:43:45;1.73;;;1.55;;
22186;SDS011;11259;52.146;12.844;2023-07-09T00:47:06;1.98;;;1.60;;
22186;SDS011;11259;52.146;12.844;2023-07-09T00:49:26;2.00;;;1.70;;
22186;SDS011;11259;52.146;12.844;2023-07-09T00:51:54;1.92;;;1.77;;
22186;SDS011;11259;52.146;12.844;2023-07-09T00:54:21;2.33;;;1.83;;
22186;SDS011;11259;52.146;12.844;2023-07-09T00:56:49;2.35;;;2.00;;
22186;SDS011;11259;52.146;12.844;2023-07-09T00:59:15;2.17;;;1.67;;
22186;SDS011;11259;52.146;12.844;2023-07-09T01:01:45;2.75;;;1.80;;
22186;SDS011;11259;52.146;12.844;2023-07-09T01:04:10;2.33;;;1.83;;
22186;SDS011;11259;52.146;12.844;2023-07-09T01:06:38;1.90;;;1.75;;
22186;SDS011;11259;52.146;12.844;2023-07-09T01:11:35;2.10;;;1.73;;
22186;SDS011;11259;52.146;12.844;2023-07-09T01:14:01;1.88;;;1.75;;
22186;SDS011;11259;52.146;12.844;2023-07-09T01:16:29;1.63;;;1.50;;
22186;SDS011;11259;52.146;12.844;2023-07-09T01:18:57;3.17;;;2.03;;
22186;SDS011;11259;52.146;12.844;2023-07-09T01:21:24;2.15;;;1.75;;
22186;SDS011;11259;52.146;12.844;2023-07-09T01:23:50;3.17;;;2.10;;
22186;SDS011;11259;52.146;12.844;2023-07-09T01:26:16;2.58;;;2.38;;
22186;SDS011;11259;52.146;12.844;2023-07-09T01:28:43;2.33;;;2.13;;
22186;SDS011;11259;52.146;12.844;2023-07-09T01:31:09;2.10;;;1.77;;
22186;SDS011;11259;52.146;12.844;2023-07-09T01:33:34;2.95;;;2.45;;
22186;SDS011;11259;52.146;12.844;2023-07-09T01:36:00;2.30;;;1.83;;
22186;SDS011;11259;52.146;12.844;2023-07-09T01:38:26;5.20;;;1.88;;
22186;SDS011;11259;52.146;12.844;2023-07-09T01:40:52;1.83;;;1.73;;
22186;SDS011;11259;52.146;12.844;2023-07-09T01:43:18;2.05;;;1.85;;
22186;SDS011;11259;52.146;12.844;2023-07-09T01:45:43;2.38;;;1.95;;
22186;SDS011;11259;52.146;12.844;2023-07-09T01:48:09;4.07;;;3.03;;
22186;SDS011;11259;52.146;12.844;2023-07-09T01:50:34;3.42;;;2.50;;
22186;SDS011;11259;52.146;12.844;2023-07-09T01:52:59;2.20;;;2.00;;
22186;SDS011;11259;52.146;12.844;2023-07-09T01:55:26;4.18;;;2.50;;
22186;SDS011;11259;52.146;12.844;2023-07-09T01:57:53;3.30;;;2.80;;
22186;SDS011;11259;52.146;12.844;2023-07-09T02:00:18;2.47;;;2.28;;
22186;SDS011;11259;52.146;12.844;2023-07-09T02:02:44;2.97;;;2.58;;
22186;SDS011;11259;52.146;12.844;2023-07-09T02:05:11;2.95;;;2.17;;
22186;SDS011;11259;52.146;12.844;2023-07-09T02:07:37;4.90;;;2.17;;
22186;SDS011;11259;52.146;12.844;2023-07-09T02:10:03;3.38;;;2.17;;
22186;SDS011;11259;52.146;12.844;2023-07-09T02:12:31;3.45;;;2.60;;
22186;SDS011;11259;52.146;12.844;2023-07-09T02:14:56;2.72;;;1.92;;
22186;SDS011;11259;52.146;12.844;2023-07-09T02:17:22;2.40;;;2.00;;
22186;SDS011;11259;52.146;12.844;2023-07-09T02:19:47;3.33;;;2.30;;
22186;SDS011;11259;52.146;12.844;2023-07-09T02:22:12;3.80;;;2.58;;
22186;SDS011;11259;52.146;12.844;2023-07-09T02:24:38;3.13;;;2.30;;
22186;SDS011;11259;52.146;12.844;2023-07-09T02:27:04;3.92;;;2.17;;
22186;SDS011;11259;52.146;12.844;2023-07-09T02:29:32;1.85;;;1.65;;
22186;SDS011;11259;52.146;12.844;2023-07-09T02:31:58;2.83;;;2.30;;
22186;SDS011;11259;52.146;12.844;2023-07-09T02:34:24;2.22;;;1.98;;
22186;SDS011;11259;52.146;12.844;2023-07-09T02:36:50;3.47;;;2.28;;
22186;SDS011;11259;52.146;12.844;2023-07-09T02:39:15;3.05;;;2.67;;
22186;SDS011;11259;52.146;12.844;2023-07-09T02:41:40;7.80;;;2.85;;
22186;SDS011;11259;52.146;12.844;2023-07-09T02:44:06;2.85;;;2.58;;
22186;SDS011;11259;52.146;12.844;2023-07-09T02:46:33;2.83;;;2.47;;
22186;SDS011;11259;52.146;12.844;2023-07-09T02:48:59;2.78;;;2.47;;
22186;SDS011;11259;52.146;12.844;2023-07-09T02:51:25;2.63;;;2.38;;
22186;SDS011;11259;52.146;12.844;2023-07-09T02:53:50;5.03;;;3.30;;
22186;SDS011;11259;52.146;12.844;2023-07-09T02:56:15;3.38;;;3.05;;
22186;SDS011;11259;52.146;12.844;2023-07-09T02:58:41;4.03;;;3.33;;
22186;SDS011;11259;52.146;12.844;2023-07-09T03:01:06;4.22;;;3.17;;
22186;SDS011;11259;52.146;12.844;2023-07-09T03:03:33;6.03;;;3.33;;
22186;SDS011;11259;52.146;12.844;2023-07-09T03:05:58;4.65;;;2.97;;
22186;SDS011;11259;52.146;12.844;2023-07-09T03:08:23;3.83;;;3.20;;
22186;SDS011;11259;52.146;12.844;2023-07-09T03:10:49;3.67;;;2.80;;
22186;SDS011;11259;52.146;12.844;2023-07-09T03:13:14;4.55;;;2.90;;
22186;SDS011;11259;52.146;12.844;2023-07-09T03:15:40;4.10;;;3.10;;
22186;SDS011;11259;52.146;12.844;2023-07-09T03:18:06;4.47;;;3.17;;
22186;SDS011;11259;52.146;12.844;2023-07-09T03:20:33;3.63;;;2.80;;
22186;SDS011;11259;52.146;12.844;2023-07-09T03:22:58;3.80;;;2.97;;
22186;SDS011;11259;52.146;12.844;2023-07-09T03:25:23;3.15;;;2.85;;
22186;SDS011;11259;52.146;12.844;2023-07-09T03:27:49;3.95;;;3.10;;
22186;SDS011;11259;52.146;12.844;2023-07-09T03:30:14;4.22;;;2.80;;
22186;SDS011;11259;52.146;12.844;2023-07-09T03:32:40;4.32;;;3.08;;
22186;SDS011;11259;52.146;12.844;2023-07-09T03:35:05;4.25;;;3.70;;
22186;SDS011;11259;52.146;12.844;2023-07-09T03:37:32;3.67;;;3.08;;
22186;SDS011;11259;52.146;12.844;2023-07-09T03:39:57;4.05;;;3.28;;
22186;SDS011;11259;52.146;12.844;2023-07-09T03:42:23;3.92;;;3.50;;
22186;SDS011;11259;52.146;12.844;2023-07-09T03:44:48;4.18;;;3.08;;
22186;SDS011;11259;52.146;12.844;2023-07-09T03:47:13;3.70;;;3.05;;
22186;SDS011;11259;52.146;12.844;2023-07-09T03:49:39;4.10;;;3.08;;
22186;SDS011;11259;52.146;12.844;2023-07-09T03:52:04;3.47;;;3.17;;
22186;SDS011;11259;52.146;12.844;2023-07-09T03:54:31;5.43;;;3.50;;
22186;SDS011;11259;52.146;12.844;2023-07-09T03:56:56;3.70;;;3.30;;
22186;SDS011;11259;52.146;12.844;2023-07-09T03:59:22;4.93;;;3.50;;
22186;SDS011;11259;52.146;12.844;2023-07-09T04:01:47;4.82;;;3.13;;
22186;SDS011;11259;52.146;12.844;2023-07-09T04:04:12;4.88;;;3.53;;
22186;SDS011;11259;52.146;12.844;2023-07-09T04:06:38;5.38;;;4.03;;
22186;SDS011;11259;52.146;12.844;2023-07-09T04:09:03;5.22;;;4.03;;
22186;SDS011;11259;52.146;12.844;2023-07-09T04:11:30;4.85;;;3.45;;
22186;SDS011;11259;52.146;12.844;2023-07-09T04:13:56;3.92;;;3.03;;
22186;SDS011;11259;52.146;12.844;2023-07-09T04:16:21;4.97;;;3.83;;
22186;SDS011;11259;52.146;12.844;2023-07-09T04:18:46;4.30;;;3.35;;
22186;SDS011;11259;52.146;12.844;2023-07-09T04:21:12;3.70;;;3.20;;
22186;SDS011;11259;52.146;12.844;2023-07-09T04:23:37;4.53;;;3.58;;
22186;SDS011;11259;52.146;12.844;2023-07-09T04:26:02;4.90;;;3.38;;
22186;SDS011;11259;52.146;12.844;2023-07-09T04:28:29;5.50;;;3.42;;
22186;SDS011;11259;52.146;12.844;2023-07-09T04:30:55;4.53;;;3.92;;
22186;SDS011;11259;52.146;12.844;2023-07-09T04:33:20;6.75;;;2.28;;
22186;SDS011;11259;52.146;12.844;2023-07-09T04:35:45;4.68;;;3.30;;
22186;SDS011;11259;52.146;12.844;2023-07-09T04:38:11;3.80;;;3.17;;
22186;SDS011;11259;52.146;12.844;2023-07-09T04:40:37;3.47;;;3.00;;
22186;SDS011;11259;52.146;12.844;2023-07-09T04:43:02;3.45;;;2.60;;
22186;SDS011;11259;52.146;12.844;2023-07-09T04:45:29;3.80;;;3.20;;
22186;SDS011;11259;52.146;12.844;2023-07-09T04:47:54;5.07;;;3.33;;
22186;SDS011;11259;52.146;12.844;2023-07-09T04:50:20;3.47;;;3.10;;
22186;SDS011;11259;52.146;12.844;2023-07-09T04:52:45;3.65;;;3.10;;
22186;SDS011;11259;52.146;12.844;2023-07-09T04:55:10;4.07;;;3.35;;
22186;SDS011;11259;52.146;12.844;2023-07-09T04:57:36;4.45;;;3.35;;
22186;SDS011;11259;52.146;12.844;2023-07-09T05:00:01;5.70;;;3.60;;
22186;SDS011;11259;52.146;12.844;2023-07-09T05:02:28;3.15;;;2.72;;
22186;SDS011;11259;52.146;12.844;2023-07-09T05:04:54;3.85;;;3.33;;
22186;SDS011;11259;52.146;12.844;2023-07-09T05:07:19;3.38;;;3.08;;
22186;SDS011;11259;52.146;12.844;2023-07-09T05:09:45;3.00;;;2.70;;
22186;SDS011;11259;52.146;12.844;2023-07-09T05:12:10;3.65;;;3.10;;
22186;SDS011;11259;52.146;12.844;2023-07-09T05:14:36;4.85;;;3.38;;
22186;SDS011;11259;52.146;12.844;2023-07-09T05:17:01;3.75;;;3.20;;
22186;SDS011;11259;52.146;12.844;2023-07-09T05:19:28;4.00;;;3.38;;
22186;SDS011;11259;52.146;12.844;2023-07-09T05:21:53;3.08;;;2.67;;
22186;SDS011;11259;52.146;12.844;2023-07-09T05:24:18;4.35;;;3.70;;
22186;SDS011;11259;52.146;12.844;2023-07-09T05:26:43;3.42;;;2.97;;
22186;SDS011;11259;52.146;12.844;2023-07-09T05:29:09;3.53;;;3.10;;
22186;SDS011;11259;52.146;12.844;2023-07-09T05:31:34;3.63;;;3.17;;
22186;SDS011;11259;52.146;12.844;2023-07-09T05:34:00;2.67;;;2.47;;
22186;SDS011;11259;52.146;12.844;2023-07-09T05:36:27;4.20;;;3.40;;
22186;SDS011;11259;52.146;12.844;2023-07-09T05:38:52;3.35;;;3.05;;
22186;SDS011;11259;52.146;12.844;2023-07-09T05:41:18;4.65;;;3.75;;
22186;SDS011;11259;52.146;12.844;2023-07-09T05:43:43;5.03;;;3.33;;
22186;SDS011;11259;52.146;12.844;2023-07-09T05:46:09;3.70;;;3.30;;
22186;SDS011;11259;52.146;12.844;2023-07-09T05:48:34;3.47;;;2.97;;
22186;SDS011;11259;52.146;12.844;2023-07-09T05:50:59;4.90;;;3.72;;
22186;SDS011;11259;52.146;12.844;2023-07-09T05:53:26;4.40;;;3.42;;
22186;SDS011;11259;52.146;12.844;2023-07-09T05:55:52;4.10;;;3.28;;
22186;SDS011;11259;52.146;12.844;2023-07-09T05:58:18;3.33;;;3.03;;
22186;SDS011;11259;52.146;12.844;2023-07-09T06:00:43;4.38;;;3.60;;
22186;SDS011;11259;52.146;12.844;2023-07-09T06:03:08;4.25;;;3.40;;
22186;SDS011;11259;52.146;12.844;2023-07-09T06:05:34;3.60;;;3.05;;
22186;SDS011;11259;52.146;12.844;2023-07-09T06:07:59;4.18;;;3.30;;
22186;SDS011;11259;52.146;12.844;2023-07-09T06:10:26;3.88;;;3.50;;
22186;SDS011;11259;52.146;12.844;2023-07-09T06:12:52;3.42;;;3.13;;
22186;SDS011;11259;52.146;12.844;2023-07-09T06:15:17;3.20;;;2.90;;
22186;SDS011;11259;52.146;12.844;2023-07-09T06:17:42;2.70;;;2.50;;
22186;SDS011;11259;52.146;12.844;2023-07-09T06:20:08;3.70;;;3.10;;
22186;SDS011;11259;52.146;12.844;2023-07-09T06:22:34;3.55;;;3.10;;
22186;SDS011;11259;52.146;12.844;2023-07-09T06:24:59;4.57;;;3.47;;
22186;SDS011;11259;52.146;12.844;2023-07-09T06:27:26;3.35;;;2.90;;
22186;SDS011;11259;52.146;12.844;2023-07-09T06:29:51;3.65;;;3.05;;
22186;SDS011;11259;52.146;12.844;2023-07-09T06:32:17;2.70;;;2.50;;
22186;SDS011;11259;52.146;12.844;2023-07-09T06:34:42;6.20;;;3.38;;
22186;SDS011;11259;52.146;12.844;2023-07-09T06:37:07;3.50;;;3.10;;
22186;SDS011;11259;52.146;12.844;2023-07-09T06:39:33;3.28;;;2.88;;
22186;SDS011;11259;52.146;12.844;2023-07-09T06:41:58;3.05;;;2.72;;
22186;SDS011;11259;52.146;12.844;2023-07-09T06:44:25;2.92;;;2.72;;
22186;SDS011;11259;52.146;12.844;2023-07-09T06:46:50;3.30;;;2.90;;
22186;SDS011;11259;52.146;12.844;2023-07-09T06:49:15;3.75;;;3.30;;
22186;SDS011;11259;52.146;12.844;2023-07-09T06:51:41;3.70;;;3.20;;
22186;SDS011;11259;52.146;12.844;2023-07-09T06:54:06;4.20;;;3.13;;
22186;SDS011;11259;52.146;12.844;2023-07-09T06:56:31;4.38;;;3.15;;
22186;SDS011;11259;52.146;12.844;2023-07-09T06:58:56;3.33;;;2.83;;
22186;SDS011;11259;52.146;12.844;2023-07-09T07:01:23;3.50;;;3.17;;
22186;SDS011;11259;52.146;12.844;2023-07-09T07:03:48;2.85;;;2.50;;
22186;SDS011;11259;52.146;12.844;2023-07-09T07:06:14;2.13;;;2.03;;
22186;SDS011;11259;52.146;12.844;2023-07-09T07:08:39;3.00;;;2.60;;
22186;SDS011;11259;52.146;12.844;2023-07-09T07:11:04;3.20;;;2.90;;
22186;SDS011;11259;52.146;12.844;2023-07-09T07:13:30;3.45;;;3.05;;
22186;SDS011;11259;52.146;12.844;2023-07-09T07:15:56;3.08;;;2.72;;
22186;SDS011;11259;52.146;12.844;2023-07-09T07:18:22;3.10;;;2.75;;
22186;SDS011;11259;52.146;12.844;2023-07-09T07:20:48;3.03;;;2.67;;
22186;SDS011;11259;52.146;12.844;2023-07-09T07:23:14;4.53;;;3.13;;
22186;SDS011;11259;52.146;12.844;2023-07-09T07:25:39;3.55;;;2.88;;
22186;SDS011;11259;52.146;12.844;2023-07-09T07:28:04;7.95;;;3.13;;
22186;SDS011;11259;52.146;12.844;2023-07-09T07:30:29;3.08;;;2.42;;
22186;SDS011;11259;52.146;12.844;2023-07-09T07:32:55;3.03;;;2.60;;
22186;SDS011;11259;52.146;12.844;2023-07-09T07:35:21;3.65;;;3.15;;
22186;SDS011;11259;52.146;12.844;2023-07-09T07:37:47;2.88;;;2.50;;
22186;SDS011;11259;52.146;12.844;2023-07-09T07:40:12;2.70;;;2.45;;
22186;SDS011;11259;52.146;12.844;2023-07-09T07:42:38;3.20;;;2.90;;
22186;SDS011;11259;52.146;12.844;2023-07-09T07:45:04;2.72;;;2.25;;
22186;SDS011;11259;52.146;12.844;2023-07-09T07:47:30;3.35;;;2.60;;
22186;SDS011;11259;52.146;12.844;2023-07-09T07:49:55;2.75;;;2.55;;
22186;SDS011;11259;52.146;12.844;2023-07-09T07:52:22;2.85;;;2.58;;
22186;SDS011;11259;52.146;12.844;2023-07-09T07:54:48;3.60;;;3.28;;
22186;SDS011;11259;52.146;12.844;2023-07-09T07:57:14;3.72;;;2.88;;
22186;SDS011;11259;52.146;12.844;2023-07-09T07:59:39;2.63;;;2.38;;
22186;SDS011;11259;52.146;12.844;2023-07-09T08:02:05;3.50;;;2.50;;
22186;SDS011;11259;52.146;12.844;2023-07-09T08:04:31;3.22;;;2.97;;
22186;SDS011;11259;52.146;12.844;2023-07-09T08:06:57;4.63;;;2.85;;
22186;SDS011;11259;52.146;12.844;2023-07-09T08:09:24;3.03;;;2.38;;
22186;SDS011;11259;52.146;12.844;2023-07-09T08:11:49;3.15;;;2.40;;
22186;SDS011;11259;52.146;12.844;2023-07-09T08:14:14;3.38;;;2.42;;
22186;SDS011;11259;52.146;12.844;2023-07-09T08:16:40;2.50;;;2.30;;
22186;SDS011;11259;52.146;12.844;2023-07-09T08:19:05;3.03;;;2.47;;
22186;SDS011;11259;52.146;12.844;2023-07-09T08:21:31;4.25;;;2.90;;
22186;SDS011;11259;52.146;12.844;2023-07-09T08:23:56;2.70;;;2.50;;
22186;SDS011;11259;52.146;12.844;2023-07-09T08:26:23;2.70;;;2.42;;
22186;SDS011;11259;52.146;12.844;2023-07-09T08:28:48;2.83;;;2.30;;
22186;SDS011;11259;52.146;12.844;2023-07-09T08:31:13;2.97;;;2.60;;
22186;SDS011;11259;52.146;12.844;2023-07-09T08:33:39;2.75;;;2.45;;
22186;SDS011;11259;52.146;12.844;2023-07-09T08:36:04;2.42;;;2.20;;
22186;SDS011;11259;52.146;12.844;2023-07-09T08:38:29;2.47;;;2.25;;
22186;SDS011;11259;52.146;12.844;2023-07-09T08:40:56;3.35;;;2.40;;
22186;SDS011;11259;52.146;12.844;2023-07-09T08:43:28;2.40;;;2.20;;
22186;SDS011;11259;52.146;12.844;2023-07-09T08:46:01;2.63;;;2.25;;
22186;SDS011;11259;52.146;12.844;2023-07-09T08:48:29;2.55;;;2.35;;
22186;SDS011;11259;52.146;12.844;2023-07-09T08:50:57;2.17;;;2.00;;
22186;SDS011;11259;52.146;12.844;2023-07-09T08:53:25;4.20;;;2.35;;
22186;SDS011;11259;52.146;12.844;2023-07-09T08:55:55;4.75;;;2.85;;
22186;SDS011;11259;52.146;12.844;2023-07-09T08:58:23;2.25;;;1.85;;
22186;SDS011;11259;52.146;12.844;2023-07-09T09:00:51;3.17;;;2.38;;
22186;SDS011;11259;52.146;12.844;2023-07-09T09:03:23;3.15;;;2.22;;
22186;SDS011;11259;52.146;12.844;2023-07-09T09:05:53;2.67;;;2.08;;
22186;SDS011;11259;52.146;12.844;2023-07-09T09:08:26;2.10;;;1.90;;
22186;SDS011;11259;52.146;12.844;2023-07-09T09:10:56;2.67;;;1.98;;
22186;SDS011;11259;52.146;12.844;2023-07-09T09:13:27;2.05;;;1.58;;
22186;SDS011;11259;52.146;12.844;2023-07-09T09:15:54;1.67;;;1.58;;
22186;SDS011;11259;52.146;12.844;2023-07-09T09:18:22;1.85;;;1.63;;
22186;SDS011;11259;52.146;12.844;2023-07-09T09:20:52;2.10;;;1.88;;
22186;SDS011;11259;52.146;12.844;2023-07-09T09:23:20;1.60;;;1.50;;
22186;SDS011;11259;52.146;12.844;2023-07-09T09:25:47;1.65;;;1.55;;
22186;SDS011;11259;52.146;12.844;2023-07-09T09:28:16;2.22;;;1.75;;
22186;SDS011;11259;52.146;12.844;2023-07-09T09:30:41;2.08;;;1.77;;
22186;SDS011;11259;52.146;12.844;2023-07-09T09:33:09;2.08;;;1.88;;
22186;SDS011;11259;52.146;12.844;2023-07-09T09:35:36;3.70;;;2.08;;
22186;SDS011;11259;52.146;12.844;2023-07-09T09:38:09;2.30;;;1.83;;
22186;SDS011;11259;52.146;12.844;2023-07-09T09:40:35;1.95;;;1.75;;
22186;SDS011;11259;52.146;12.844;2023-07-09T09:43:01;2.42;;;2.22;;
22186;SDS011;11259;52.146;12.844;2023-07-09T09:45:31;2.30;;;1.98;;
22186;SDS011;11259;52.146;12.844;2023-07-09T09:47:58;2.17;;;1.98;;
22186;SDS011;11259;52.146;12.844;2023-07-09T09:50:27;2.53;;;1.88;;
22186;SDS011;11259;52.146;12.844;2023-07-09T09:52:56;3.47;;;1.95;;
22186;SDS011;11259;52.146;12.844;2023-07-09T09:55:22;2.28;;;1.90;;
22186;SDS011;11259;52.146;12.844;2023-07-09T09:57:49;2.60;;;1.85;;
22186;SDS011;11259;52.146;12.844;2023-07-09T10:00:15;2.78;;;1.90;;
22186;SDS011;11259;52.146;12.844;2023-07-09T10:02:43;2.35;;;1.75;;
22186;SDS011;11259;52.146;12.844;2023-07-09T10:05:11;2.10;;;1.90;;
22186;SDS011;11259;52.146;12.844;2023-07-09T10:07:41;1.90;;;1.73;;
22186;SDS011;11259;52.146;12.844;2023-07-09T10:10:09;1.73;;;1.55;;
22186;SDS011;11259;52.146;12.844;2023-07-09T10:12:40;2.63;;;2.20;;
22186;SDS011;11259;52.146;12.844;2023-07-09T10:15:14;2.03;;;1.58;;
22186;SDS011;11259;52.146;12.844;2023-07-09T10:17:47;1.52;;;1.38;;
22186;SDS011;11259;52.146;12.844;2023-07-09T10:20:21;2.20;;;1.95;;
22186;SDS011;11259;52.146;12.844;2023-07-09T10:22:51;3.17;;;2.45;;
22186;SDS011;11259;52.146;12.844;2023-07-09T10:25:23;2.33;;;1.73;;
22186;SDS011;11259;52.146;12.844;2023-07-09T10:27:59;2.83;;;2.10;;
22186;SDS011;11259;52.146;12.844;2023-07-09T10:30:37;1.98;;;1.73;;
22186;SDS011;11259;52.146;12.844;2023-07-09T10:33:08;2.58;;;2.05;;
22186;SDS011;11259;52.146;12.844;2023-07-09T10:35:37;2.15;;;1.65;;
22186;SDS011;11259;52.146;12.844;2023-07-09T10:38:09;2.30;;;2.10;;
22186;SDS011;11259;52.146;12.844;2023-07-09T10:40:56;2.50;;;1.75;;
22186;SDS011;11259;52.146;12.844;2023-07-09T10:43:35;2.30;;;1.88;;
22186;SDS011;11259;52.146;12.844;2023-07-09T10:46:03;1.70;;;1.60;;
22186;SDS011;11259;52.146;12.844;2023-07-09T10:48:34;1.73;;;1.55;;
22186;SDS011;11259;52.146;12.844;2023-07-09T10:51:01;2.08;;;1.75;;
22186;SDS011;11259;52.146;12.844;2023-07-09T10:53:29;2.13;;;1.50;;
22186;SDS011;11259;52.146;12.844;2023-07-09T10:55:58;2.30;;;1.83;;
22186;SDS011;11259;52.146;12.844;2023-07-09T10:58:28;2.80;;;2.00;;
22186;SDS011;11259;52.146;12.844;2023-07-09T11:00:57;2.25;;;1.88;;
22186;SDS011;11259;52.146;12.844;2023-07-09T11:03:32;2.08;;;1.88;;
22186;SDS011;11259;52.146;12.844;2023-07-09T11:06:01;1.83;;;1.60;;
22186;SDS011;11259;52.146;12.844;2023-07-09T11:08:28;2.35;;;1.98;;
22186;SDS011;11259;52.146;12.844;2023-07-09T11:10:59;2.08;;;1.88;;
22186;SDS011;11259;52.146;12.844;2023-07-09T11:13:28;2.40;;;2.20;;
22186;SDS011;11259;52.146;12.844;2023-07-09T11:15:57;2.22;;;1.88;;
22186;SDS011;11259;52.146;12.844;2023-07-09T11:18:25;2.10;;;1.80;;
22186;SDS011;11259;52.146;12.844;2023-07-09T11:20:55;2.80;;;2.05;;
22186;SDS011;11259;52.146;12.844;2023-07-09T11:23:24;1.90;;;1.65;;
22186;SDS011;11259;52.146;12.844;2023-07-09T11:26:01;2.42;;;2.03;;
22186;SDS011;11259;52.146;12.844;2023-07-09T11:28:32;3.20;;;2.30;;
22186;SDS011;11259;52.146;12.844;2023-07-09T11:30:58;2.25;;;2.05;;
22186;SDS011;11259;52.146;12.844;2023-07-09T11:33:31;2.42;;;1.90;;
22186;SDS011;11259;52.146;12.844;2023-07-09T11:36:06;2.50;;;1.90;;
22186;SDS011;11259;52.146;12.844;2023-07-09T11:38:38;2.10;;;1.88;;
22186;SDS011;11259;52.146;12.844;2023-07-09T11:44:00;3.65;;;2.17;;
22186;SDS011;11259;52.146;12.844;2023-07-09T11:46:27;5.18;;;2.33;;
22186;SDS011;11259;52.146;12.844;2023-07-09T11:48:53;1.90;;;1.73;;
22186;SDS011;11259;52.146;12.844;2023-07-09T11:51:20;2.50;;;1.88;;
22186;SDS011;11259;52.146;12.844;2023-07-09T11:53:49;1.75;;;1.52;;
22186;SDS011;11259;52.146;12.844;2023-07-09T11:56:18;1.80;;;1.70;;
22186;SDS011;11259;52.146;12.844;2023-07-09T11:58:51;2.05;;;1.67;;
22186;SDS011;11259;52.146;12.844;2023-07-09T12:01:19;2.17;;;1.95;;
22186;SDS011;11259;52.146;12.844;2023-07-09T12:03:46;1.88;;;1.73;;
22186;SDS011;11259;52.146;12.844;2023-07-09T12:06:16;2.28;;;1.95;;
22186;SDS011;11259;52.146;12.844;2023-07-09T12:08:44;2.40;;;2.20;;
22186;SDS011;11259;52.146;12.844;2023-07-09T12:11:17;2.08;;;1.77;;
22186;SDS011;11259;52.146;12.844;2023-07-09T12:13:44;1.95;;;1.75;;
22186;SDS011;11259;52.146;12.844;2023-07-09T12:16:20;3.58;;;2.35;;
22186;SDS011;11259;52.146;12.844;2023-07-09T12:18:46;2.33;;;2.05;;
22186;SDS011;11259;52.146;12.844;2023-07-09T12:21:11;9.52;;;2.45;;
22186;SDS011;11259;52.146;12.844;2023-07-09T12:23:37;3.80;;;2.47;;
22186;SDS011;11259;52.146;12.844;2023-07-09T12:26:05;2.67;;;1.85;;
22186;SDS011;11259;52.146;12.844;2023-07-09T12:28:31;2.10;;;1.85;;
22186;SDS011;11259;52.146;12.844;2023-07-09T12:30:56;1.65;;;1.55;;
22186;SDS011;11259;52.146;12.844;2023-07-09T12:33:23;1.25;;;1.15;;
22186;SDS011;11259;52.146;12.844;2023-07-09T12:35:52;3.33;;;2.00;;
22186;SDS011;11259;52.146;12.844;2023-07-09T12:38:20;6.78;;;2.17;;
22186;SDS011;11259;52.146;12.844;2023-07-09T12:40:46;2.63;;;2.30;;
22186;SDS011;11259;52.146;12.844;2023-07-09T12:43:12;1.75;;;1.60;;
22186;SDS011;11259;52.146;12.844;2023-07-09T12:45:38;1.85;;;1.67;;
22186;SDS011;11259;52.146;12.844;2023-07-09T12:48:03;2.30;;;2.03;;
22186;SDS011;11259;52.146;12.844;2023-07-09T12:50:31;2.53;;;2.05;;
22186;SDS011;11259;52.146;12.844;2023-07-09T12:53:00;2.42;;;1.70;;
22186;SDS011;11259;52.146;12.844;2023-07-09T12:55:27;2.22;;;1.90;;
22186;SDS011;11259;52.146;12.844;2023-07-09T12:57:54;1.80;;;1.70;;
22186;SDS011;11259;52.146;12.844;2023-07-09T13:00:20;2.10;;;1.90;;
22186;SDS011;11259;52.146;12.844;2023-07-09T13:02:50;3.95;;;2.30;;
22186;SDS011;11259;52.146;12.844;2023-07-09T13:05:18;2.40;;;1.92;;
22186;SDS011;11259;52.146;12.844;2023-07-09T13:07:48;1.83;;;1.73;;
22186;SDS011;11259;52.146;12.844;2023-07-09T13:10:16;2.25;;;1.95;;
22186;SDS011;11259;52.146;12.844;2023-07-09T13:12:45;3.63;;;2.13;;
22186;SDS011;11259;52.146;12.844;2023-07-09T13:15:25;1.80;;;1.67;;
22186;SDS011;11259;52.146;12.844;2023-07-09T13:17:56;2.05;;;1.90;;
22186;SDS011;11259;52.146;12.844;2023-07-09T13:20:22;2.63;;;2.10;;
22186;SDS011;11259;52.146;12.844;2023-07-09T13:22:49;2.05;;;1.85;;
22186;SDS011;11259;52.146;12.844;2023-07-09T13:25:16;2.85;;;1.88;;
22186;SDS011;11259;52.146;12.844;2023-07-09T13:27:41;2.50;;;2.28;;
22186;SDS011;11259;52.146;12.844;2023-07-09T13:30:07;2.65;;;2.08;;
22186;SDS011;11259;52.146;12.844;2023-07-09T13:32:33;2.88;;;1.80;;
22186;SDS011;11259;52.146;12.844;2023-07-09T13:34:58;2.08;;;1.85;;
22186;SDS011;11259;52.146;12.844;2023-07-09T13:37:24;2.47;;;1.98;;
22186;SDS011;11259;52.146;12.844;2023-07-09T13:39:50;2.10;;;1.88;;
22186;SDS011;11259;52.146;12.844;2023-07-09T13:42:16;2.22;;;2.03;;
22186;SDS011;11259;52.146;12.844;2023-07-09T13:44:43;2.47;;;1.95;;
22186;SDS011;11259;52.146;12.844;2023-07-09T13:47:12;2.30;;;2.10;;
22186;SDS011;11259;52.146;12.844;2023-07-09T13:49:38;1.95;;;1.77;;
22186;SDS011;11259;52.146;12.844;2023-07-09T13:52:04;4.03;;;2.47;;
22186;SDS011;11259;52.146;12.844;2023-07-09T13:54:31;2.15;;;1.90;;
22186;SDS011;11259;52.146;12.844;2023-07-09T13:56:59;2.97;;;1.90;;
22186;SDS011;11259;52.146;12.844;2023-07-09T13:59:24;2.55;;;1.98;;
22186;SDS011;11259;52.146;12.844;2023-07-09T14:01:52;3.25;;;2.10;;
22186;SDS011;11259;52.146;12.844;2023-07-09T14:04:19;2.65;;;2.45;;
22186;SDS011;11259;52.146;12.844;2023-07-09T14:06:45;3.50;;;2.00;;
22186;SDS011;11259;52.146;12.844;2023-07-09T14:09:10;3.80;;;1.90;;
22186;SDS011;11259;52.146;12.844;2023-07-09T14:11:36;2.50;;;2.30;;
22186;SDS011;11259;52.146;12.844;2023-07-09T14:14:07;1.98;;;1.85;;
22186;SDS011;11259;52.146;12.844;2023-07-09T14:16:39;6.05;;;2.05;;
22186;SDS011;11259;52.146;12.844;2023-07-09T14:19:07;2.10;;;1.90;;
22186;SDS011;11259;52.146;12.844;2023-07-09T14:21:35;2.15;;;1.95;;
22186;SDS011;11259;52.146;12.844;2023-07-09T14:24:00;2.28;;;1.60;;
22186;SDS011;11259;52.146;12.844;2023-07-09T14:26:26;2.17;;;1.98;;
22186;SDS011;11259;52.146;12.844;2023-07-09T14:28:51;2.20;;;2.00;;
22186;SDS011;11259;52.146;12.844;2023-07-09T14:31:19;2.00;;;1.80;;
22186;SDS011;11259;52.146;12.844;2023-07-09T14:33:47;2.50;;;2.00;;
22186;SDS011;11259;52.146;12.844;2023-07-09T14:36:13;2.90;;;2.22;;
22186;SDS011;11259;52.146;12.844;2023-07-09T14:38:38;3.53;;;2.20;;